Accueil
METAR-TAF:

METAR-TAF

Aéroports :

Waterford, Irlande

latitude: 52-11-14N, longitude: 7-05-13W, altitude: 36 m

Observation

Le bulletin a été fait il y a 20 minutes, à 19:30 UTC
Vent 14 kt de nord avec des rafales jusqu'à 27 kt, variant entre ouest/nord-ouest et nord-est
Température 13°C
Humidité 77%
Pression 1021 hPa
Visibilité 10 km ou plus
Nuages épars à une hauteur de 4300 ft

METAR: EIWF 301930Z 35014G27KT 300V040 9999 SCT043 13/09 Q1021

Heure: 20:50 (19:50 UTC)

Prévision

Le bulletin a été fait il y a 2 heures et 50 minutes, à 17:00 UTC
Prévision valable du 30 à 18 UTC au 31 à 03 UTC
Vent 9 kt de nord/nord-ouest
Visibilité 10 km ou plus
Quelques nuages à une hauteur de 3000 ft
Nuages épars à une hauteur de 4000 ft
Probabilité 30% :
Temporairement
du 30 à 18 UTC au 30 à 20 UTC
Vent 15 kt de nord/nord-ouest avec des rafales jusqu'à 25 kt

TAF: EIWF 301700Z 3018/3103 33009KT 9999 FEW030 SCT040 PROB30 TEMPO 3018/3020 34015G25KT

Observations et prévisions météorologiques de plus de 4000 aéroports (messages METAR et TAF).

Les stations disponibles sont représentées par des disques jaunes et rouges sur la carte.

Passer la souris dessus pour voir le nom de la station.

Cliquer dessus pour voir les observations et prévisions météorologiques.

Pour changer de carte: cliquez sur les boutons verts avec une croix noire pour zoomer, sur le bouton vert avec un tiret pour effectuer un zoom arrière, ou sur les flèches vertes pour les cartes adjacentes.


METAR-TAF: